Time;durP1;ratioP1;P1;durP2;ratioP2;P2;SDS_P1;SDS_P2;PMS_P1;PMS_P2;Temp;Humidity;BMP_temperature;BMP_pressure;BME280_temperature;BME280_humidity;BME280_pressure;Samples;Min_cycle;Max_cycle;Signal;HPM_P1;HPM_P2
2022/06/24 00:00:10;;;;;;;9.93;9.43;;;20.20;70.90;;;;;;5094388;28;20201;-75
2022/06/24 00:02:36;;;;;;;10.00;9.33;;;20.20;71.00;;;;;;5094405;28;20759;-74
2022/06/24 00:05:07;;;;;;;9.90;9.50;;;20.20;71.50;;;;;;5094317;28;20514;-74
2022/06/24 00:07:45;;;;;;;10.40;10.00;;;20.10;68.90;;;;;;5093882;28;20423;-73
2022/06/24 00:10:12;;;;;;;10.30;9.90;;;20.10;69.70;;;;;;5094176;28;20907;-73
2022/06/24 00:12:38;;;;;;;9.93;9.33;;;20.10;69.70;;;;;;5094274;28;20435;-75
2022/06/24 00:15:04;;;;;;;9.50;9.00;;;20.10;70.80;;;;;;5094167;28;20466;-74
2022/06/24 00:17:32;;;;;;;8.70;8.30;;;20.20;73.60;;;;;;5094247;28;20194;-74
2022/06/24 00:20:06;;;;;;;9.30;8.83;;;20.20;72.00;;;;;;5094014;28;20912;-74
2022/06/24 00:22:40;;;;;;;9.50;9.10;;;20.10;70.80;;;;;;5094604;28;20415;-74
2022/06/24 00:25:14;;;;;;;9.30;8.70;;;20.10;69.60;;;;;;5094335;28;20426;-74
2022/06/24 00:27:41;;;;;;;10.33;9.93;;;20.10;71.30;;;;;;5113941;28;20418;-74
2022/06/24 00:30:16;;;;;;;10.87;10.47;;;20.10;70.80;;;;;;5095014;28;20422;-74
2022/06/24 00:32:44;;;;;;;10.10;9.60;;;20.00;70.90;;;;;;5095462;28;20427;-74
2022/06/24 00:35:16;;;;;;;11.00;10.20;;;20.10;72.30;;;;;;5094261;28;20452;-73
2022/06/24 00:37:44;;;;;;;10.70;10.20;;;20.10;71.10;;;;;;5094171;28;20427;-74
2022/06/24 00:40:09;;;;;;;10.50;10.00;;;20.10;71.10;;;;;;5094066;28;20461;-74
2022/06/24 00:42:43;;;;;;;10.57;10.10;;;20.00;70.70;;;;;;5093837;28;20466;-74
2022/06/24 00:45:34;;;;;;;10.60;10.10;;;20.00;70.20;;;;;;5094071;28;20188;-74
2022/06/24 00:48:06;;;;;;;11.00;10.30;;;20.00;71.00;;;;;;5094075;28;20833;-74
2022/06/24 00:50:32;;;;;;;11.20;10.70;;;19.90;68.10;;;;;;5093777;28;20518;-74
2022/06/24 00:53:00;;;;;;;13.17;12.07;;;19.90;68.20;;;;;;5094308;28;20469;-73
2022/06/24 00:55:36;;;;;;;11.07;10.30;;;19.80;69.00;;;;;;5093829;28;20538;-75
2022/06/24 00:58:04;;;;;;;9.80;9.30;;;19.80;70.90;;;;;;5094140;28;20929;-74
2022/06/24 01:00:31;;;;;;;9.67;9.07;;;19.80;71.60;;;;;;5093628;28;20423;-74
2022/06/24 01:03:03;;;;;;;9.77;9.27;;;19.80;73.80;;;;;;5093930;28;20777;-74
2022/06/24 01:05:30;;;;;;;9.13;8.73;;;19.80;73.40;;;;;;5112012;28;20403;-75
2022/06/24 01:07:56;;;;;;;9.57;9.10;;;19.80;72.40;;;;;;5093946;28;20915;-74
2022/06/24 01:10:22;;;;;;;9.60;9.10;;;19.80;72.40;;;;;;5093602;28;20412;-74
2022/06/24 01:12:48;;;;;;;9.97;9.30;;;19.80;72.50;;;;;;5093863;28;20423;-75
2022/06/24 01:15:14;;;;;;;10.30;9.90;;;19.80;72.10;;;;;;5093657;28;20583;-75
2022/06/24 01:17:40;;;;;;;11.07;10.50;;;19.90;70.60;;;;;;5093697;28;20618;-75
2022/06/24 01:20:09;;;;;;;10.90;10.40;;;19.90;68.80;;;;;;5094822;28;20677;-75
2022/06/24 01:22:35;;;;;;;10.47;9.97;;;19.90;68.90;;;;;;5097195;28;20412;-74
2022/06/24 01:25:01;;;;;;;11.30;10.80;;;19.80;69.00;;;;;;5097324;28;20784;-76
2022/06/24 01:27:27;;;;;;;11.13;10.60;;;19.80;68.60;;;;;;5097373;28;20408;-73
2022/06/24 01:29:52;;;;;;;11.33;10.83;;;19.80;70.50;;;;;;5097110;28;20209;-74
2022/06/24 01:35:40;;;;;;;11.80;11.03;;;19.70;70.40;;;;;;5115218;28;20270;-74
2022/06/24 01:41:44;;;;;;;11.53;10.80;;;19.70;70.40;;;;;;5114914;28;20176;-74
2022/06/24 01:44:10;;;;;;;11.93;11.23;;;19.70;69.20;;;;;;5096117;28;20411;-73
2022/06/24 01:46:36;;;;;;;13.40;12.50;;;19.70;69.00;;;;;;5096808;28;20382;-73
2022/06/24 01:49:01;;;;;;;13.07;11.97;;;19.70;69.80;;;;;;5096869;28;20174;-74
2022/06/24 01:51:28;;;;;;;11.80;11.30;;;19.60;68.70;;;;;;5096387;28;20407;-74
2022/06/24 01:53:54;;;;;;;13.20;12.37;;;19.60;70.00;;;;;;5097080;28;20536;-74
2022/06/24 01:56:20;;;;;;;11.60;11.00;;;19.60;71.00;;;;;;5096497;28;20452;-74
2022/06/24 01:58:45;;;;;;;12.53;11.70;;;19.50;71.00;;;;;;5096726;28;20174;-74
2022/06/24 02:01:11;;;;;;;11.70;11.10;;;19.60;70.80;;;;;;5096330;28;20468;-74
2022/06/24 02:03:40;;;;;;;14.60;13.43;;;19.60;71.80;;;;;;5096677;28;20688;-74
2022/06/24 02:06:07;;;;;;;12.53;11.83;;;19.50;70.20;;;;;;5096462;28;20976;-74
2022/06/24 02:08:33;;;;;;;11.53;10.93;;;19.50;71.30;;;;;;5096360;28;20416;-74
2022/06/24 02:13:45;;;;;;;11.47;10.97;;;19.50;70.20;;;;;;5115143;28;20521;-73
2022/06/24 02:16:11;;;;;;;10.90;10.50;;;19.50;71.10;;;;;;5095935;28;20516;-74
2022/06/24 02:18:58;;;;;;;13.20;12.40;;;19.50;71.70;;;;;;5096315;28;20408;-74
2022/06/24 02:21:24;;;;;;;13.00;12.50;;;19.40;69.50;;;;;;5079018;28;20426;-74
2022/06/24 02:24:18;;;;;;;12.93;12.13;;;19.40;67.50;;;;;;5096151;28;20404;-74
2022/06/24 02:26:44;;;;;;;12.70;12.00;;;19.40;67.70;;;;;;5096131;28;20416;-74
2022/06/24 02:29:10;;;;;;;13.97;13.30;;;19.40;69.00;;;;;;5096067;28;20759;-74
2022/06/24 02:31:39;;;;;;;13.37;12.67;;;19.40;66.00;;;;;;5095247;28;20593;-74
2022/06/24 02:34:06;;;;;;;12.37;11.67;;;19.40;66.40;;;;;;5095939;28;20412;-74
2022/06/24 02:39:54;;;;;;;13.10;12.20;;;19.40;67.70;;;;;;5113938;28;20528;-74
2022/06/24 02:46:03;;;;;;;13.10;12.30;;;19.40;67.20;;;;;;5114053;28;20254;-75
2022/06/24 02:48:30;;;;;;;14.13;13.10;;;19.30;68.80;;;;;;5094335;28;20420;-74
2022/06/24 02:50:57;;;;;;;13.23;12.60;;;19.20;67.90;;;;;;5095543;28;20403;-75
2022/06/24 02:56:45;;;;;;;12.90;12.40;;;19.20;67.00;;;;;;5113734;28;20411;-75
2022/06/24 02:59:10;;;;;;;12.50;12.00;;;19.30;67.60;;;;;;5095228;28;20408;-75
2022/06/24 03:01:36;;;;;;;13.00;12.30;;;19.30;66.60;;;;;;5095235;28;20178;-75
2022/06/24 03:04:08;;;;;;;13.30;12.40;;;19.30;66.40;;;;;;5095394;28;20182;-75
2022/06/24 03:06:34;;;;;;;13.53;12.93;;;19.30;66.40;;;;;;5095490;28;20209;-74
2022/06/24 03:08:59;;;;;;;14.13;13.33;;;19.30;65.60;;;;;;5095349;28;20408;-74
2022/06/24 03:12:12;;;;;;;14.27;13.47;;;19.30;65.30;;;;;;5113356;28;20170;-74
2022/06/24 03:15:05;;;;;;;14.77;14.00;;;19.30;64.20;;;;;;5094923;28;20216;-74
2022/06/24 03:17:31;;;;;;;14.17;13.53;;;19.20;65.00;;;;;;5095031;28;20412;-74
2022/06/24 03:19:56;;;;;;;14.67;13.97;;;19.20;65.40;;;;;;5094912;28;20415;-74
2022/06/24 03:23:00;;;;;;;14.93;14.13;;;19.10;65.50;;;;;;5094939;28;20177;-75
2022/06/24 03:25:25;;;;;;;14.23;13.63;;;19.10;65.20;;;;;;5094847;28;20177;-74
2022/06/24 03:27:51;;;;;;;15.97;15.07;;;19.10;64.50;;;;;;5094929;28;20529;-75
2022/06/24 03:30:17;;;;;;;15.50;14.80;;;19.10;65.60;;;;;;5094657;28;20233;-74
2022/06/24 03:32:43;;;;;;;14.90;14.10;;;19.10;65.60;;;;;;5094888;28;20230;-75
2022/06/24 03:35:09;;;;;;;14.40;13.57;;;19.00;66.30;;;;;;5094968;28;20201;-75
2022/06/24 03:37:35;;;;;;;14.60;13.90;;;19.00;66.20;;;;;;5094703;28;21261;-75
2022/06/24 03:40:01;;;;;;;14.30;13.60;;;19.00;65.60;;;;;;5094650;28;20444;-78
2022/06/24 03:42:45;;;;;;;14.50;13.80;;;19.10;66.20;;;;;;5093835;28;20523;-75
2022/06/24 03:45:11;;;;;;;14.40;13.60;;;19.00;66.40;;;;;;5094265;28;20479;-75
2022/06/24 03:47:37;;;;;;;14.97;14.17;;;19.00;65.90;;;;;;5094672;28;20170;-75
2022/06/24 03:50:03;;;;;;;15.20;14.43;;;19.00;65.90;;;;;;5094465;28;20193;-75
2022/06/24 03:52:28;;;;;;;14.60;14.10;;;19.00;66.00;;;;;;5094346;28;20568;-74
2022/06/24 03:54:54;;;;;;;14.60;13.80;;;19.00;65.60;;;;;;5094642;28;20246;-75
2022/06/24 03:57:20;;;;;;;15.80;14.90;;;19.00;66.00;;;;;;5094421;28;20174;-75
2022/06/24 03:59:46;;;;;;;15.87;14.97;;;19.00;65.60;;;;;;5094390;28;20188;-75
2022/06/24 04:02:52;;;;;;;15.50;14.90;;;19.00;65.80;;;;;;5094621;28;20396;-74
2022/06/24 04:05:18;;;;;;;17.23;16.10;;;18.90;65.20;;;;;;5094384;28;20533;-75
2022/06/24 04:07:43;;;;;;;15.37;14.50;;;19.00;64.20;;;;;;5094434;28;20411;-74
2022/06/24 04:10:15;;;;;;;15.70;14.87;;;19.00;63.30;;;;;;5094147;28;20492;-75
2022/06/24 04:12:41;;;;;;;15.83;14.90;;;19.00;64.40;;;;;;5094082;28;20181;-75
2022/06/24 04:15:13;;;;;;;15.20;14.40;;;19.10;64.30;;;;;;5094190;28;20463;-75
2022/06/24 04:17:38;;;;;;;19.07;17.47;;;19.10;62.80;;;;;;5094011;28;20389;-75
2022/06/24 04:20:05;;;;;;;16.17;15.40;;;19.20;61.30;;;;;;5097703;28;20979;-79
2022/06/24 04:22:31;;;;;;;15.60;14.63;;;19.20;61.90;;;;;;5094033;28;20216;-79
2022/06/24 04:25:02;;;;;;;15.87;15.27;;;19.10;62.90;;;;;;5087338;28;20440;-79
2022/06/24 04:27:28;;;;;;;15.50;14.90;;;19.10;63.90;;;;;;5073863;28;20183;-79
2022/06/24 04:32:56;;;;;;;18.23;17.03;;;19.20;62.40;;;;;;5142994;22;20486;-79
2022/06/24 04:35:22;;;;;;;17.63;16.80;;;19.30;61.90;;;;;;5114203;28;20856;-79
2022/06/24 04:37:49;;;;;;;17.40;16.60;;;19.40;60.60;;;;;;5133320;28;20403;-79
2022/06/24 04:52:48;;;;;;;19.00;18.00;;;19.90;56.20;;;;;;5121672;22;21087;-75
2022/06/24 04:55:14;;;;;;;19.27;18.40;;;20.20;55.20;;;;;;5109004;27;20469;-75
2022/06/24 04:57:40;;;;;;;21.07;19.70;;;20.10;55.00;;;;;;5117729;27;20173;-76
2022/06/24 05:00:11;;;;;;;18.93;17.90;;;20.10;54.30;;;;;;5118008;27;20199;-75
2022/06/24 05:02:37;;;;;;;19.40;18.37;;;20.20;55.00;;;;;;5117862;27;20491;-76
2022/06/24 05:05:05;;;;;;;19.53;18.17;;;20.30;55.40;;;;;;5136471;27;20893;-75
2022/06/24 05:40:07;;;;;;;20.67;19.57;;;21.00;52.20;;;;;;5073138;28;20477;-80
2022/06/24 05:42:34;;;;;;;20.73;19.57;;;21.10;51.80;;;;;;5075208;28;20437;-80
2022/06/24 05:45:00;;;;;;;21.40;20.20;;;21.20;51.20;;;;;;5075033;28;20683;-80
2022/06/24 05:47:26;;;;;;;21.50;20.40;;;21.30;50.00;;;;;;5075521;28;20491;-80
2022/06/24 05:49:51;;;;;;;21.70;20.73;;;21.30;49.90;;;;;;5075135;28;20186;-80
2022/06/24 05:55:02;;;;;;;22.27;20.87;;;21.40;49.70;;;;;;5075152;28;20179;-79
2022/06/24 05:55:03;;;;;;;20.50;19.40;;;21.50;48.60;;;;;;5059204;28;20222;-78
2022/06/24 05:57:29;;;;;;;23.17;21.80;;;21.70;46.90;;;;;;5073402;28;20425;-81
2022/06/24 05:59:55;;;;;;;21.57;20.57;;;21.70;46.90;;;;;;5074419;28;20453;-75
2022/06/24 06:02:22;;;;;;;21.53;20.53;;;21.70;46.90;;;;;;5072570;28;20426;-75
2022/06/24 06:04:49;;;;;;;20.77;19.60;;;21.70;46.70;;;;;;5073928;28;20194;-77
2022/06/24 06:07:16;;;;;;;22.20;21.10;;;21.70;47.60;;;;;;5072295;28;20428;-74
2022/06/24 06:09:41;;;;;;;22.03;20.60;;;21.80;47.40;;;;;;5055916;28;20433;-76
2022/06/24 06:12:08;;;;;;;21.40;20.20;;;21.80;46.60;;;;;;5064471;28;20917;-76
2022/06/24 06:14:34;;;;;;;20.50;19.20;;;21.80;46.00;;;;;;5072555;28;20183;-75
2022/06/24 06:16:59;;;;;;;22.77;21.47;;;21.90;46.30;;;;;;5072817;28;20948;-74
2022/06/24 06:19:25;;;;;;;20.90;19.87;;;21.90;45.20;;;;;;5073690;28;20171;-77
2022/06/24 06:21:51;;;;;;;22.00;20.60;;;22.00;44.90;;;;;;5072664;28;20180;-75
2022/06/24 06:24:17;;;;;;;21.50;20.40;;;22.00;45.10;;;;;;5060161;28;20586;-75
2022/06/24 06:26:42;;;;;;;21.45;20.45;;;22.00;45.00;;;;;;5051820;28;20508;-75
2022/06/24 06:29:08;;;;;;;22.30;21.10;;;22.10;44.80;;;;;;5052664;28;20685;-77
2022/06/24 06:31:34;;;;;;;21.37;20.30;;;22.10;44.30;;;;;;5052122;28;20187;-76
2022/06/24 06:34:00;;;;;;;22.33;20.80;;;22.20;45.80;;;;;;5052289;28;20183;-75
2022/06/24 06:36:25;;;;;;;22.37;21.10;;;22.30;45.10;;;;;;5052379;28;20648;-76
2022/06/24 06:38:54;;;;;;;22.17;20.87;;;22.40;44.70;;;;;;5052121;28;20561;-75
2022/06/24 06:41:22;;;;;;;22.10;21.17;;;22.40;45.10;;;;;;5052320;28;20180;-77
2022/06/24 06:43:47;;;;;;;20.63;19.67;;;22.50;44.00;;;;;;5052294;28;20921;-78
2022/06/24 06:46:19;;;;;;;21.83;20.73;;;22.50;44.60;;;;;;5053754;28;20414;-78
2022/06/24 06:48:46;;;;;;;21.37;20.47;;;22.60;42.60;;;;;;5050716;28;20290;-79
2022/06/24 06:51:14;;;;;;;21.47;20.30;;;22.60;43.70;;;;;;5051700;28;20573;-74
2022/06/24 06:53:43;;;;;;;20.83;19.93;;;22.60;43.80;;;;;;5057157;28;20410;-75
2022/06/24 06:56:47;;;;;;;21.80;20.50;;;22.60;42.60;;;;;;5069381;28;20476;-75
2022/06/24 06:59:32;;;;;;;21.60;20.70;;;22.70;42.30;;;;;;5054407;28;20426;-76
2022/06/24 07:01:58;;;;;;;21.43;20.47;;;22.70;41.60;;;;;;5051645;28;20975;-76
2022/06/24 07:04:24;;;;;;;19.67;18.77;;;22.70;42.00;;;;;;5051196;28;20505;-76
2022/06/24 07:06:49;;;;;;;21.10;19.70;;;22.80;41.50;;;;;;5052972;28;20175;-75
2022/06/24 07:09:18;;;;;;;21.30;20.40;;;22.80;41.10;;;;;;5053089;28;20194;-75
2022/06/24 07:11:44;;;;;;;20.70;19.70;;;22.90;38.50;;;;;;5064763;28;20203;-74
2022/06/24 07:14:09;;;;;;;21.50;20.30;;;22.90;39.10;;;;;;5071000;28;20558;-74
2022/06/24 07:16:36;;;;;;;20.97;19.97;;;22.90;39.10;;;;;;5053471;28;20458;-74
2022/06/24 07:19:02;;;;;;;21.33;20.23;;;22.90;38.70;;;;;;5061366;28;20631;-75
2022/06/24 07:21:28;;;;;;;20.30;19.30;;;22.90;38.90;;;;;;5071335;28;20425;-73
2022/06/24 07:23:54;;;;;;;21.90;20.80;;;23.00;37.80;;;;;;5071123;28;20417;-75
2022/06/24 07:26:20;;;;;;;22.10;21.20;;;22.90;38.10;;;;;;5071027;28;20435;-76
2022/06/24 07:28:46;;;;;;;21.40;20.43;;;23.00;38.70;;;;;;5070648;28;20218;-77
2022/06/24 07:31:17;;;;;;;20.80;19.80;;;23.10;38.60;;;;;;5053557;28;20973;-75
2022/06/24 07:33:43;;;;;;;20.93;19.80;;;23.10;37.90;;;;;;5053645;28;20184;-74
2022/06/24 07:36:09;;;;;;;20.73;19.83;;;23.20;38.40;;;;;;5053817;28;20910;-75
2022/06/24 07:38:35;;;;;;;23.03;21.57;;;23.10;37.50;;;;;;5057302;28;20822;-78
2022/06/24 07:41:01;;;;;;;21.50;20.40;;;23.10;37.90;;;;;;5056221;28;20418;-77
2022/06/24 07:43:27;;;;;;;21.90;20.37;;;23.00;37.80;;;;;;5052499;28;20493;-74
2022/06/24 07:45:53;;;;;;;21.13;20.13;;;23.00;38.80;;;;;;5056992;28;20422;-76
2022/06/24 07:48:21;;;;;;;23.00;21.73;;;22.90;38.20;;;;;;5056575;28;20443;-75
2022/06/24 07:50:47;;;;;;;22.07;21.03;;;22.90;37.70;;;;;;5054554;28;20417;-76
2022/06/24 07:53:13;;;;;;;22.67;21.43;;;22.90;37.70;;;;;;5053718;28;20422;-75
2022/06/24 07:58:42;;;;;;;22.73;21.63;;;22.90;37.70;;;;;;5059346;28;20216;-74
2022/06/24 08:01:07;;;;;;;21.40;20.50;;;22.90;38.30;;;;;;5062225;28;20418;-75
2022/06/24 08:03:33;;;;;;;22.43;21.40;;;23.00;37.80;;;;;;5070359;28;20190;-77
2022/06/24 08:05:58;;;;;;;21.90;21.10;;;23.10;37.90;;;;;;5071037;28;20648;-74
2022/06/24 08:08:24;;;;;;;20.80;19.80;;;23.10;37.20;;;;;;5060387;28;20539;-77
2022/06/24 08:10:50;;;;;;;22.30;21.37;;;23.10;35.90;;;;;;5057600;28;20529;-76
2022/06/24 08:14:02;;;;;;;22.50;21.50;;;23.20;35.50;;;;;;5051735;28;20195;-75
2022/06/24 08:16:28;;;;;;;20.67;19.87;;;23.30;36.00;;;;;;5062993;28;20229;-77
2022/06/24 08:18:54;;;;;;;21.63;20.70;;;23.40;34.90;;;;;;5065622;28;20422;-76
2022/06/24 08:21:21;;;;;;;20.67;19.80;;;23.50;33.00;;;;;;5050669;28;20456;-75
2022/06/24 08:23:47;;;;;;;20.97;20.10;;;23.60;31.80;;;;;;5050479;28;20422;-75
2022/06/24 08:26:13;;;;;;;21.60;20.70;;;23.60;33.00;;;;;;5050456;28;20427;-75
2022/06/24 08:28:38;;;;;;;21.60;20.60;;;23.70;31.50;;;;;;5050891;28;20437;-76
2022/06/24 08:31:04;;;;;;;21.70;20.40;;;23.70;31.80;;;;;;5054220;28;20175;-76
2022/06/24 08:33:30;;;;;;;21.97;20.87;;;23.80;32.60;;;;;;5042223;28;20187;-75
2022/06/24 08:35:56;;;;;;;20.73;19.70;;;24.00;31.10;;;;;;5074439;28;20238;-76
2022/06/24 08:38:21;;;;;;;21.63;20.43;;;24.00;32.50;;;;;;5066907;28;20590;-76
2022/06/24 08:40:50;;;;;;;20.63;19.40;;;24.10;30.00;;;;;;5055522;28;20172;-75
2022/06/24 08:43:47;;;;;;;20.77;19.97;;;24.20;29.60;;;;;;5042875;28;20537;-75
2022/06/24 08:46:13;;;;;;;20.23;19.43;;;24.10;30.30;;;;;;5035960;28;20819;-81
2022/06/24 08:48:38;;;;;;;20.63;19.87;;;24.00;29.90;;;;;;5047046;28;20422;-83
2022/06/24 08:51:06;;;;;;;20.07;19.20;;;24.00;28.80;;;;;;5055815;28;20643;-84
2022/06/24 09:00:18;;;;;;;21.20;20.40;;;23.70;28.50;;;;;;5040063;28;20390;-82
2022/06/24 09:02:44;;;;;;;21.23;20.33;;;23.70;30.30;;;;;;5047516;28;20414;-82
2022/06/24 09:05:12;;;;;;;20.50;19.70;;;23.70;30.30;;;;;;5054176;28;20500;-82
2022/06/24 09:07:38;;;;;;;19.80;19.10;;;23.70;31.80;;;;;;5053723;28;20910;-83
2022/06/24 09:10:09;;;;;;;19.90;19.20;;;23.80;32.20;;;;;;5054213;28;20540;-82
2022/06/24 09:12:48;;;;;;;19.83;19.03;;;23.90;30.50;;;;;;5054104;28;20501;-80
2022/06/24 09:15:52;;;;;;;19.90;19.10;;;24.10;30.00;;;;;;5042342;28;20489;-83
2022/06/24 09:18:24;;;;;;;20.20;19.40;;;24.20;31.70;;;;;;5042459;28;20413;-83
2022/06/24 09:20:57;;;;;;;20.47;19.37;;;24.30;30.40;;;;;;5038665;28;20477;-75
2022/06/24 09:23:23;;;;;;;21.50;20.70;;;24.40;30.00;;;;;;5041480;28;20421;-76
2022/06/24 09:25:50;;;;;;;21.10;20.10;;;24.50;28.20;;;;;;5033445;28;20434;-75
2022/06/24 09:28:24;;;;;;;19.90;19.10;;;24.60;27.30;;;;;;5033568;28;20419;-75
2022/06/24 09:30:50;;;;;;;20.20;19.40;;;24.50;27.60;;;;;;5049136;28;20422;-75
2022/06/24 09:33:18;;;;;;;20.30;19.50;;;24.60;27.90;;;;;;5053362;28;20501;-76
2022/06/24 09:39:31;;;;;;;20.60;19.67;;;24.80;28.90;;;;;;5067373;28;20407;-75
2022/06/24 09:52:49;;;;;;;21.13;20.20;;;24.50;31.50;;;;;;5079346;28;20920;-74
2022/06/24 10:05:45;;;;;;;21.47;20.57;;;24.60;29.40;;;;;;5055821;28;20468;-80
2022/06/24 10:08:24;;;;;;;20.87;19.80;;;24.60;31.50;;;;;;5093094;28;20416;-81
2022/06/24 10:11:04;;;;;;;20.03;19.20;;;24.70;29.10;;;;;;5073514;28;20423;-81
2022/06/24 10:17:21;;;;;;;20.60;19.70;;;24.70;29.00;;;;;;5028485;28;20450;-78
2022/06/24 10:20:02;;;;;;;20.07;19.30;;;24.60;29.40;;;;;;5027902;28;20439;-80
2022/06/24 10:39:20;;;;;;;22.10;21.00;;;24.40;33.20;;;;;;5095522;28;20915;-78
2022/06/24 10:41:47;;;;;;;21.67;20.60;;;24.40;34.10;;;;;;5094524;28;20423;-78
2022/06/24 10:44:23;;;;;;;21.70;20.60;;;24.40;34.60;;;;;;5093853;28;20416;-79
2022/06/24 10:47:04;;;;;;;21.97;21.07;;;24.40;33.70;;;;;;5091613;28;20424;-79
2022/06/24 10:50:21;;;;;;;22.20;21.20;;;24.30;33.20;;;;;;5080244;28;20428;-75
2022/06/24 10:53:51;;;;;;;21.37;20.47;;;24.30;33.00;;;;;;4989993;28;20938;-79
2022/06/24 10:56:43;;;;;;;21.67;20.67;;;24.30;32.50;;;;;;5013480;28;20470;-80
2022/06/24 11:02:50;;;;;;;22.70;21.70;;;24.40;32.90;;;;;;5030352;28;21090;-80
2022/06/24 11:16:00;;;;;;;19.73;18.83;;;25.00;30.20;;;;;;4983705;28;20215;-79
2022/06/24 11:18:28;;;;;;;20.87;19.93;;;25.00;29.90;;;;;;5013671;28;20427;-78
2022/06/24 11:27:50;;;;;;;21.17;19.97;;;24.80;30.80;;;;;;5023785;28;20498;-81
2022/06/24 11:30:58;;;;;;;20.53;19.73;;;24.60;32.00;;;;;;5023220;28;20418;-81
2022/06/24 11:47:05;;;;;;;20.73;19.63;;;24.60;29.80;;;;;;5010192;28;20486;-76
2022/06/24 11:49:32;;;;;;;20.17;19.27;;;24.60;30.60;;;;;;4993041;28;20427;-73
2022/06/24 11:51:58;;;;;;;19.97;18.90;;;24.70;28.70;;;;;;5001313;28;20420;-77
2022/06/24 11:54:29;;;;;;;20.33;19.50;;;24.80;29.10;;;;;;5091895;28;20906;-75
2022/06/24 11:56:55;;;;;;;19.93;19.13;;;24.80;29.00;;;;;;5090762;28;20468;-74
2022/06/24 11:59:23;;;;;;;19.60;18.80;;;24.90;28.60;;;;;;5090513;28;20424;-76
2022/06/24 12:01:50;;;;;;;18.70;18.00;;;24.90;28.00;;;;;;5073830;28;20416;-75
2022/06/24 12:04:17;;;;;;;20.23;19.43;;;24.90;27.30;;;;;;5073072;28;20424;-73
2022/06/24 12:06:44;;;;;;;20.20;19.30;;;24.80;27.50;;;;;;5091551;28;20416;-76
2022/06/24 12:09:10;;;;;;;19.10;18.27;;;24.70;27.40;;;;;;5056639;28;20440;-75
2022/06/24 12:11:41;;;;;;;19.47;18.77;;;24.70;26.90;;;;;;5053555;28;20444;-74
2022/06/24 12:14:16;;;;;;;19.40;18.50;;;24.70;27.80;;;;;;5058553;28;20436;-75
2022/06/24 12:16:58;;;;;;;19.40;18.60;;;24.60;29.00;;;;;;5073695;28;20460;-74
2022/06/24 12:19:25;;;;;;;19.10;18.13;;;24.80;27.20;;;;;;5090560;28;20418;-74
2022/06/24 12:22:06;;;;;;;19.53;18.60;;;24.80;26.70;;;;;;5070184;28;20432;-74
2022/06/24 12:24:32;;;;;;;19.50;18.70;;;24.90;26.10;;;;;;5070265;28;20508;-76
2022/06/24 12:27:01;;;;;;;18.67;17.97;;;24.80;26.80;;;;;;5070590;28;20428;-75
2022/06/24 12:29:38;;;;;;;19.57;18.77;;;24.80;26.60;;;;;;5070675;28;20425;-75
2022/06/24 12:32:05;;;;;;;19.60;18.90;;;24.70;27.70;;;;;;5070546;28;20429;-77
2022/06/24 12:34:35;;;;;;;18.60;17.80;;;24.70;27.70;;;;;;5053967;28;20437;-75
2022/06/24 12:37:08;;;;;;;18.47;17.87;;;24.60;27.40;;;;;;5073202;28;20424;-75
2022/06/24 12:39:42;;;;;;;18.90;18.20;;;24.50;26.10;;;;;;5090610;28;20467;-75
2022/06/24 12:42:13;;;;;;;19.07;18.30;;;24.40;26.80;;;;;;5090565;28;20477;-75
2022/06/24 12:44:52;;;;;;;19.37;18.57;;;24.30;27.80;;;;;;5088948;28;20755;-77
2022/06/24 12:52:57;;;;;;;21.80;20.80;;;23.70;38.40;;;;;;5072642;28;20404;-75
2022/06/24 12:55:23;;;;;;;21.10;20.07;;;23.20;40.10;;;;;;5090174;28;20457;-75
2022/06/24 12:57:49;;;;;;;21.83;21.00;;;23.00;41.40;;;;;;5089922;28;20417;-76
2022/06/24 13:00:16;;;;;;;21.43;20.43;;;22.70;42.70;;;;;;5073074;28;20537;-77
2022/06/24 13:02:45;;;;;;;22.27;21.33;;;22.50;43.90;;;;;;5073317;28;20458;-76
2022/06/24 13:05:20;;;;;;;21.53;20.63;;;22.40;45.50;;;;;;5071094;28;20412;-76
2022/06/24 13:07:48;;;;;;;21.50;20.50;;;22.30;47.70;;;;;;5053240;28;20417;-74
2022/06/24 13:10:14;;;;;;;21.40;20.10;;;22.20;50.50;;;;;;5053029;28;20420;-75
2022/06/24 13:12:40;;;;;;;19.70;18.50;;;22.00;54.10;;;;;;5053186;28;20479;-76
2022/06/24 13:15:08;;;;;;;17.93;17.13;;;22.00;56.90;;;;;;5072579;28;20501;-74
2022/06/24 13:17:35;;;;;;;17.90;16.57;;;21.80;57.40;;;;;;5056927;28;20475;-75
2022/06/24 13:20:01;;;;;;;18.60;17.60;;;21.80;58.30;;;;;;5056557;28;20418;-74
2022/06/24 13:22:27;;;;;;;17.37;16.57;;;21.80;59.50;;;;;;5066819;28;20408;-76
2022/06/24 13:24:53;;;;;;;17.07;16.00;;;21.70;57.80;;;;;;5076771;28;20435;-74
2022/06/24 13:27:19;;;;;;;17.10;16.37;;;21.70;58.60;;;;;;5076955;28;20541;-76
2022/06/24 13:29:45;;;;;;;17.50;16.50;;;21.70;59.80;;;;;;5071471;28;20679;-74
2022/06/24 13:32:10;;;;;;;17.30;16.50;;;21.70;60.20;;;;;;5065228;28;20190;-73
2022/06/24 13:34:36;;;;;;;17.27;16.57;;;21.70;58.40;;;;;;5088070;28;20408;-74
2022/06/24 13:37:02;;;;;;;17.50;16.80;;;21.70;56.30;;;;;;5076479;28;20252;-73
2022/06/24 13:39:28;;;;;;;17.85;17.05;;;21.70;57.50;;;;;;5075575;28;20412;-74
2022/06/24 13:41:54;;;;;;;17.00;16.20;;;21.70;57.20;;;;;;5056361;28;20175;-76
2022/06/24 13:44:20;;;;;;;18.90;17.83;;;21.70;56.70;;;;;;5057360;28;20552;-75
2022/06/24 13:46:45;;;;;;;18.70;17.90;;;21.60;57.90;;;;;;5076239;28;20486;-72
2022/06/24 13:49:11;;;;;;;17.43;16.37;;;21.60;59.70;;;;;;5076286;28;20421;-72
2022/06/24 13:51:37;;;;;;;16.27;15.47;;;21.50;60.00;;;;;;5075867;28;20182;-72
2022/06/24 13:54:03;;;;;;;17.37;16.57;;;21.50;60.70;;;;;;5092834;28;20229;-73
2022/06/24 13:56:31;;;;;;;18.43;17.50;;;21.50;58.70;;;;;;5094140;28;20448;-72
2022/06/24 13:58:56;;;;;;;18.00;17.20;;;21.50;58.20;;;;;;5094078;28;20178;-72
2022/06/24 14:01:22;;;;;;;18.47;17.67;;;21.50;58.20;;;;;;5092944;28;20767;-72
2022/06/24 14:03:47;;;;;;;18.40;17.13;;;21.50;57.70;;;;;;5092557;28;20550;-72
2022/06/24 14:06:15;;;;;;;18.47;17.27;;;21.50;58.10;;;;;;5085461;28;20244;-72
2022/06/24 14:08:41;;;;;;;17.70;17.00;;;21.40;57.90;;;;;;5055743;28;20176;-72
2022/06/24 14:11:07;;;;;;;16.73;16.03;;;21.50;59.70;;;;;;5069631;28;20837;-72
2022/06/24 14:13:33;;;;;;;16.83;16.07;;;21.50;59.90;;;;;;5092904;28;20499;-72
2022/06/24 14:15:58;;;;;;;17.30;16.53;;;21.50;61.00;;;;;;5081072;28;20213;-71
2022/06/24 14:18:24;;;;;;;16.70;16.00;;;21.50;59.80;;;;;;5073639;28;20202;-72
2022/06/24 14:20:50;;;;;;;16.50;15.60;;;21.50;60.00;;;;;;5073794;28;20176;-73
2022/06/24 14:26:00;;;;;;;19.03;18.13;;;21.60;54.20;;;;;;5073523;28;20262;-72
2022/06/24 14:28:26;;;;;;;19.27;18.47;;;21.60;54.00;;;;;;5070645;28;20862;-72
2022/06/24 14:30:51;;;;;;;18.73;17.93;;;21.60;51.30;;;;;;5075250;28;20255;-73
2022/06/24 14:33:17;;;;;;;19.40;18.60;;;21.60;52.60;;;;;;5059691;28;20189;-73
2022/06/24 14:35:43;;;;;;;18.10;17.20;;;21.60;53.70;;;;;;5055175;28;20249;-72
2022/06/24 14:40:52;;;;;;;17.47;16.57;;;21.50;55.80;;;;;;5073390;28;20193;-74
2022/06/24 14:43:19;;;;;;;17.77;17.00;;;21.30;56.50;;;;;;5073212;28;20806;-71
2022/06/24 14:49:06;;;;;;;17.43;16.27;;;21.00;57.30;;;;;;5083214;28;20424;-72
2022/06/24 14:51:32;;;;;;;15.90;15.00;;;20.90;60.00;;;;;;5091967;28;20405;-73
2022/06/24 14:53:58;;;;;;;15.93;14.90;;;20.80;59.20;;;;;;5075055;28;20269;-73
2022/06/24 14:56:25;;;;;;;13.60;13.00;;;20.70;58.50;;;;;;5091732;28;20455;-72
2022/06/24 14:58:51;;;;;;;16.60;15.70;;;20.60;60.80;;;;;;5091885;28;20449;-73
2022/06/24 15:01:16;;;;;;;13.47;12.80;;;20.50;60.70;;;;;;5090656;28;20453;-71
2022/06/24 15:03:42;;;;;;;12.87;12.27;;;20.30;63.70;;;;;;5073991;28;20179;-73
2022/06/24 15:06:08;;;;;;;13.30;12.63;;;20.20;63.90;;;;;;5075655;28;20241;-77
2022/06/24 15:08:38;;;;;;;13.10;12.60;;;20.20;65.40;;;;;;5074736;28;20474;-71
2022/06/24 15:11:04;;;;;;;12.23;11.70;;;20.20;65.80;;;;;;5073837;28;20182;-73
2022/06/24 15:13:30;;;;;;;12.87;12.27;;;20.00;65.50;;;;;;5091867;28;20413;-73
2022/06/24 15:15:56;;;;;;;13.30;12.70;;;19.90;67.60;;;;;;5074975;28;21163;-73
2022/06/24 15:18:22;;;;;;;14.27;13.63;;;19.80;67.80;;;;;;5074724;28;20173;-72
2022/06/24 15:20:48;;;;;;;13.70;13.10;;;19.80;65.30;;;;;;5074726;28;20175;-72
2022/06/24 15:23:14;;;;;;;13.60;12.90;;;19.60;70.30;;;;;;5074509;28;20484;-73
2022/06/24 15:25:40;;;;;;;12.90;12.33;;;19.60;71.00;;;;;;5074560;28;20878;-73
2022/06/24 15:28:06;;;;;;;11.87;11.33;;;19.50;72.40;;;;;;5074563;28;20262;-73
2022/06/24 15:30:32;;;;;;;13.60;12.90;;;19.50;74.00;;;;;;5074467;28;20804;-72